Time;durP1;ratioP1;P1;durP2;ratioP2;P2;SDS_P1;SDS_P2;PMS_P1;PMS_P2;Temp;Humidity;BMP_temperature;BMP_pressure;BME280_temperature;BME280_humidity;BME280_pressure;Samples;Min_cycle;Max_cycle;Signal;HPM_P1;HPM_P2
2021/05/04 00:01:56;;;;;;;9.23;5.87;;;7.90;92.60;;;;;;4911845;29;20425;-88
2021/05/04 00:04:21;;;;;;;11.07;6.87;;;7.90;92.60;;;;;;4912025;29;20383;-87
2021/05/04 00:06:47;;;;;;;14.60;6.60;;;7.90;92.50;;;;;;4913640;29;20241;-86
2021/05/04 00:09:12;;;;;;;11.20;6.50;;;7.80;92.90;;;;;;4913476;29;20177;-87
2021/05/04 00:11:38;;;;;;;8.73;6.03;;;7.80;92.80;;;;;;4913188;29;20277;-86
2021/05/04 00:14:03;;;;;;;8.57;5.87;;;7.80;92.90;;;;;;4913314;29;20201;-87
2021/05/04 00:16:29;;;;;;;10.20;7.10;;;7.70;93.30;;;;;;4913423;29;20272;-86
2021/05/04 00:18:55;;;;;;;9.97;6.20;;;7.70;93.30;;;;;;4899848;29;20206;-87
2021/05/04 00:21:20;;;;;;;7.70;5.20;;;7.70;93.20;;;;;;4914358;29;20174;-87
2021/05/04 00:23:46;;;;;;;11.00;6.27;;;7.60;93.50;;;;;;4914998;29;20276;-87
2021/05/04 00:26:11;;;;;;;13.03;6.67;;;7.60;93.50;;;;;;4914595;29;20645;-87
2021/05/04 00:28:37;;;;;;;10.43;6.43;;;7.60;93.80;;;;;;4898778;29;20189;-85
2021/05/04 00:31:03;;;;;;;9.33;6.37;;;7.50;94.20;;;;;;4914006;29;20182;-87
2021/05/04 00:33:29;;;;;;;8.90;5.70;;;7.50;94.40;;;;;;4914549;29;20853;-86
2021/05/04 00:35:55;;;;;;;14.63;6.70;;;7.40;94.40;;;;;;4900284;29;20258;-87
2021/05/04 00:38:22;;;;;;;13.60;7.37;;;7.40;94.40;;;;;;4914326;29;20261;-87
2021/05/04 00:40:47;;;;;;;10.57;6.60;;;7.40;94.60;;;;;;4912950;29;20477;-86
2021/05/04 00:43:13;;;;;;;13.10;7.23;;;7.30;94.70;;;;;;4913249;29;20445;-86
2021/05/04 00:45:38;;;;;;;8.13;6.33;;;7.30;94.70;;;;;;4913802;29;20184;-87
2021/05/04 00:48:04;;;;;;;11.57;6.90;;;7.30;95.00;;;;;;4913500;29;20276;-87
2021/05/04 00:50:30;;;;;;;13.60;7.70;;;7.30;95.10;;;;;;4913514;29;20314;-86
2021/05/04 00:52:55;;;;;;;9.53;6.70;;;7.20;95.10;;;;;;4897376;29;20441;-87
2021/05/04 00:55:21;;;;;;;9.03;6.10;;;7.20;95.20;;;;;;4912097;29;20200;-85
2021/05/04 00:57:48;;;;;;;8.63;6.30;;;7.20;95.10;;;;;;4913331;29;20197;-87
2021/05/04 01:00:15;;;;;;;10.17;6.73;;;7.20;95.00;;;;;;4913166;29;20445;-87
2021/05/04 01:02:42;;;;;;;11.53;7.30;;;7.20;95.10;;;;;;4897466;29;20775;-87
2021/05/04 01:05:09;;;;;;;13.73;7.03;;;7.20;95.00;;;;;;4910735;29;20759;-87
2021/05/04 01:07:37;;;;;;;10.03;6.40;;;7.20;94.90;;;;;;4911878;29;20417;-87
2021/05/04 01:10:04;;;;;;;9.80;6.70;;;7.20;95.00;;;;;;4912212;29;20473;-87
2021/05/04 01:12:30;;;;;;;12.73;6.67;;;7.20;94.80;;;;;;4897326;29;20410;-86
2021/05/04 01:14:56;;;;;;;9.00;6.20;;;7.20;94.50;;;;;;4911815;29;20493;-86
2021/05/04 01:17:22;;;;;;;10.70;6.40;;;7.20;94.50;;;;;;4897379;29;20410;-87
2021/05/04 01:19:47;;;;;;;13.20;6.80;;;7.30;94.30;;;;;;4911804;29;20480;-88
2021/05/04 01:22:13;;;;;;;10.43;7.07;;;7.30;94.40;;;;;;4912184;29;20209;-87
2021/05/04 01:24:39;;;;;;;11.07;6.80;;;7.30;94.10;;;;;;4897572;29;20680;-87
2021/05/04 01:27:06;;;;;;;11.27;6.50;;;7.30;94.20;;;;;;4896459;29;20186;-87
2021/05/04 01:29:32;;;;;;;11.63;6.73;;;7.30;94.10;;;;;;4911949;29;20413;-87
2021/05/04 01:31:57;;;;;;;9.43;6.67;;;7.30;94.00;;;;;;4911751;29;20432;-87
2021/05/04 01:34:23;;;;;;;9.80;7.10;;;7.30;94.10;;;;;;4911893;29;20257;-86
2021/05/04 01:36:49;;;;;;;10.83;6.80;;;7.30;94.20;;;;;;4911516;29;20217;-86
2021/05/04 01:39:14;;;;;;;8.93;6.40;;;7.30;94.20;;;;;;4897470;29;20177;-87
2021/05/04 01:41:40;;;;;;;10.40;6.90;;;7.30;93.90;;;;;;4912953;29;20473;-86
2021/05/04 01:44:08;;;;;;;12.10;6.30;;;7.40;93.30;;;;;;4917898;29;20200;-87
2021/05/04 01:46:34;;;;;;;8.17;6.13;;;7.40;93.20;;;;;;4917905;29;20181;-87
2021/05/04 01:49:07;;;;;;;8.13;6.20;;;7.40;93.10;;;;;;4917723;29;20505;-88
2021/05/04 01:51:34;;;;;;;10.73;6.87;;;7.40;93.10;;;;;;4917660;29;20613;-87
2021/05/04 01:53:59;;;;;;;13.03;6.30;;;7.40;93.20;;;;;;4917041;29;20481;-88
2021/05/04 01:56:25;;;;;;;9.63;6.67;;;7.50;93.20;;;;;;4902760;29;20413;-87
2021/05/04 01:58:51;;;;;;;10.67;6.50;;;7.40;93.30;;;;;;4917366;29;20567;-87
2021/05/04 02:01:17;;;;;;;9.90;6.13;;;7.40;93.30;;;;;;4903135;29;20420;-87
2021/05/04 02:03:43;;;;;;;9.60;6.30;;;7.40;93.30;;;;;;4903058;29;20248;-89
2021/05/04 02:06:09;;;;;;;12.07;6.40;;;7.40;93.70;;;;;;4903045;29;20173;-87
2021/05/04 02:08:35;;;;;;;10.10;6.20;;;7.40;93.50;;;;;;4916506;29;21004;-87
2021/05/04 02:11:01;;;;;;;9.23;6.20;;;7.40;93.30;;;;;;4916147;29;20421;-88
2021/05/04 02:30:21;;;;;;;11.23;5.73;;;7.70;91.80;;;;;;4939096;29;20777;-89
2021/05/04 02:32:46;;;;;;;12.63;6.50;;;7.70;92.10;;;;;;4939716;29;20501;-91
2021/05/04 02:35:12;;;;;;;11.27;6.60;;;7.80;91.60;;;;;;4939015;29;20175;-89
2021/05/04 02:37:38;;;;;;;8.40;6.07;;;7.80;91.80;;;;;;4938200;29;20203;-89
2021/05/04 02:40:04;;;;;;;8.10;5.30;;;7.80;91.60;;;;;;4938031;29;20549;-89
2021/05/04 02:42:30;;;;;;;9.87;5.77;;;7.80;91.30;;;;;;4938661;29;20226;-89
2021/05/04 02:44:55;;;;;;;10.80;5.93;;;7.80;91.30;;;;;;4955632;29;20418;-89
2021/05/04 02:47:21;;;;;;;12.67;5.53;;;7.90;91.40;;;;;;4938857;29;20585;-89
2021/05/04 02:49:47;;;;;;;10.17;5.90;;;7.90;91.10;;;;;;4938641;29;20183;-89
2021/05/04 02:52:12;;;;;;;8.53;5.90;;;7.90;90.50;;;;;;4939148;29;20183;-90
2021/05/04 02:54:38;;;;;;;8.93;4.93;;;8.00;90.80;;;;;;4955237;28;20454;-89
2021/05/04 02:57:04;;;;;;;9.17;5.30;;;8.00;90.70;;;;;;4956057;29;20586;-91
2021/05/04 02:59:29;;;;;;;7.20;5.23;;;8.00;90.60;;;;;;4956126;29;20183;-89
2021/05/04 03:01:55;;;;;;;11.90;6.00;;;8.00;90.60;;;;;;4938961;29;20419;-90
2021/05/04 03:04:20;;;;;;;8.57;5.37;;;8.00;90.70;;;;;;4938785;29;20175;-89
2021/05/04 03:06:46;;;;;;;9.47;6.23;;;8.00;90.80;;;;;;4955827;29;20207;-89
2021/05/04 03:09:11;;;;;;;7.77;5.60;;;8.00;91.10;;;;;;4939114;29;20718;-90
2021/05/04 03:11:37;;;;;;;12.53;6.17;;;8.00;90.70;;;;;;4939825;29;20180;-89
2021/05/04 03:14:03;;;;;;;7.70;5.40;;;7.90;90.60;;;;;;4957063;29;20207;-90
2021/05/04 03:16:28;;;;;;;8.93;5.90;;;7.90;90.70;;;;;;4957361;29;20201;-89
2021/05/04 03:18:54;;;;;;;14.53;6.00;;;7.90;90.70;;;;;;4956887;29;20174;-90
2021/05/04 03:21:19;;;;;;;9.43;6.20;;;7.80;90.70;;;;;;4940640;29;20656;-89
2021/05/04 03:23:47;;;;;;;9.70;6.23;;;7.80;90.60;;;;;;4940140;29;20175;-90
2021/05/04 03:26:14;;;;;;;9.00;5.93;;;7.80;91.00;;;;;;4940643;29;20179;-90
2021/05/04 03:28:39;;;;;;;9.23;5.60;;;7.80;90.70;;;;;;4940000;29;20517;-89
2021/05/04 03:31:05;;;;;;;13.03;5.73;;;7.80;91.10;;;;;;4940475;29;20802;-90
2021/05/04 03:33:30;;;;;;;8.70;6.50;;;7.80;90.70;;;;;;4957086;29;20749;-89
2021/05/04 03:35:56;;;;;;;16.70;7.07;;;7.80;90.50;;;;;;4939550;29;20175;-90
2021/05/04 03:38:21;;;;;;;10.77;6.73;;;7.80;90.90;;;;;;4939648;29;20693;-90
2021/05/04 03:40:47;;;;;;;10.57;6.90;;;7.80;90.60;;;;;;4956271;29;20195;-90
2021/05/04 03:43:12;;;;;;;9.60;6.23;;;7.90;90.60;;;;;;4939062;29;20318;-90
2021/05/04 03:45:38;;;;;;;11.40;6.30;;;7.90;90.70;;;;;;4939795;29;20185;-90
2021/05/04 03:48:04;;;;;;;12.57;7.17;;;7.90;90.60;;;;;;4957664;29;20204;-90
2021/05/04 03:50:30;;;;;;;13.00;8.33;;;7.90;90.60;;;;;;4945996;29;20197;-91
2021/05/04 03:52:57;;;;;;;18.77;10.60;;;7.90;90.60;;;;;;4939437;29;20859;-90
2021/05/04 03:55:23;;;;;;;12.57;8.57;;;8.00;90.40;;;;;;4939014;29;20182;-90
2021/05/04 03:57:48;;;;;;;16.23;9.47;;;8.00;90.40;;;;;;4940039;29;20451;-90
2021/05/04 04:00:14;;;;;;;14.30;8.23;;;8.00;89.90;;;;;;4939702;29;20194;-90
2021/05/04 04:02:40;;;;;;;12.33;8.20;;;8.00;90.10;;;;;;4939461;29;20531;-90
2021/05/04 04:05:06;;;;;;;14.07;8.00;;;8.10;90.00;;;;;;4938527;29;20423;-90
2021/05/04 04:07:32;;;;;;;12.83;7.20;;;8.10;89.70;;;;;;4938134;29;20206;-90
2021/05/04 04:09:58;;;;;;;18.13;7.67;;;8.10;89.80;;;;;;4937696;29;20434;-90
2021/05/04 04:12:24;;;;;;;12.30;7.20;;;8.10;90.10;;;;;;4937742;29;20964;-90
2021/05/04 04:14:50;;;;;;;15.00;8.47;;;8.10;90.50;;;;;;4954352;29;20567;-90
2021/05/04 04:17:16;;;;;;;14.63;8.70;;;8.10;90.60;;;;;;4937199;29;20474;-90
2021/05/04 04:19:41;;;;;;;20.37;9.53;;;8.10;90.40;;;;;;4937371;29;20453;-90
2021/05/04 04:22:07;;;;;;;15.33;7.97;;;8.10;90.60;;;;;;4938011;29;20172;-89
2021/05/04 04:24:32;;;;;;;15.63;8.43;;;8.20;91.00;;;;;;4938136;29;20545;-89
2021/05/04 04:26:58;;;;;;;16.53;8.37;;;8.10;91.30;;;;;;4937802;29;20347;-89
2021/05/04 04:29:24;;;;;;;19.73;9.07;;;8.20;91.10;;;;;;4937894;29;20239;-90
2021/05/04 04:31:49;;;;;;;18.20;8.10;;;8.20;91.60;;;;;;4937822;29;20191;-89
2021/05/04 04:34:17;;;;;;;14.83;7.97;;;8.20;91.70;;;;;;4937369;29;20233;-90
2021/05/04 04:36:42;;;;;;;13.57;7.20;;;8.20;91.80;;;;;;4937795;29;20531;-90
2021/05/04 04:39:08;;;;;;;12.70;7.23;;;8.30;91.70;;;;;;4938205;29;20450;-90
2021/05/04 04:41:40;;;;;;;16.23;7.40;;;8.30;91.60;;;;;;4937390;29;20281;-89
2021/05/04 04:44:06;;;;;;;14.10;7.20;;;8.40;91.70;;;;;;4937835;29;20187;-89
2021/05/04 04:46:41;;;;;;;11.10;7.20;;;8.40;91.50;;;;;;4937365;29;20442;-90
2021/05/04 04:49:11;;;;;;;10.97;6.70;;;8.50;91.50;;;;;;4938373;29;20457;-90
2021/05/04 04:51:37;;;;;;;10.77;7.00;;;8.50;91.70;;;;;;4938738;29;20422;-89
2021/05/04 04:54:04;;;;;;;12.03;6.63;;;8.60;91.80;;;;;;4938241;29;20565;-90
2021/05/04 04:56:30;;;;;;;11.00;7.20;;;8.60;91.50;;;;;;4939815;29;20427;-89
2021/05/04 04:58:56;;;;;;;12.07;6.80;;;8.70;91.30;;;;;;4939231;29;20431;-90
2021/05/04 05:01:21;;;;;;;11.70;7.27;;;8.70;91.30;;;;;;4937031;29;20429;-88
2021/05/04 05:03:47;;;;;;;14.97;7.13;;;8.80;90.90;;;;;;4938963;29;20642;-89
2021/05/04 05:06:12;;;;;;;16.70;6.60;;;8.90;91.30;;;;;;4938876;29;20198;-90
2021/05/04 05:08:38;;;;;;;10.10;6.13;;;8.90;91.00;;;;;;4938434;29;20711;-90
2021/05/04 05:11:03;;;;;;;11.90;7.20;;;8.90;90.60;;;;;;4938023;29;20179;-90
2021/05/04 05:13:29;;;;;;;11.87;7.20;;;9.00;90.20;;;;;;4954924;29;20234;-90
2021/05/04 05:15:54;;;;;;;9.57;7.20;;;9.10;90.20;;;;;;4955466;29;20221;-89
2021/05/04 05:18:20;;;;;;;21.53;8.60;;;9.20;90.20;;;;;;4955418;28;20227;-89
2021/05/04 05:20:45;;;;;;;13.50;7.43;;;9.20;89.80;;;;;;4938138;29;20175;-91
2021/05/04 05:23:12;;;;;;;11.47;7.10;;;9.20;89.70;;;;;;4937318;29;20663;-91
2021/05/04 05:25:38;;;;;;;8.37;6.13;;;9.30;90.00;;;;;;4937656;29;20190;-90
2021/05/04 05:28:05;;;;;;;13.17;6.77;;;9.40;89.50;;;;;;4954428;29;20484;-90
2021/05/04 05:30:30;;;;;;;15.20;7.50;;;9.40;89.10;;;;;;4936738;29;20422;-88
2021/05/04 05:32:56;;;;;;;10.10;6.97;;;9.50;88.90;;;;;;4954315;29;20437;-90
2021/05/04 05:35:21;;;;;;;14.73;6.97;;;9.60;88.80;;;;;;4937292;29;20258;-90
2021/05/04 05:37:47;;;;;;;11.70;6.80;;;9.60;88.80;;;;;;4937432;29;20554;-90
2021/05/04 05:40:12;;;;;;;18.63;5.93;;;9.70;88.60;;;;;;4937431;29;20612;-90
2021/05/04 05:42:38;;;;;;;10.23;6.70;;;9.80;88.00;;;;;;4936939;29;20739;-89
2021/05/04 05:45:05;;;;;;;8.67;5.97;;;9.90;88.30;;;;;;4937193;29;20258;-89
2021/05/04 05:47:30;;;;;;;13.80;7.13;;;9.90;88.00;;;;;;4937376;29;20455;-90
2021/05/04 05:49:56;;;;;;;13.37;6.20;;;10.00;87.80;;;;;;4954762;29;20469;-90
2021/05/04 05:52:21;;;;;;;9.83;6.30;;;10.00;87.60;;;;;;4936661;29;20652;-91
2021/05/04 05:54:47;;;;;;;13.73;6.57;;;10.10;87.40;;;;;;4935825;29;20207;-90
2021/05/04 05:57:12;;;;;;;9.83;6.30;;;10.10;87.60;;;;;;4935955;29;20242;-89
2021/05/04 05:59:38;;;;;;;13.07;6.80;;;10.10;87.80;;;;;;4953064;29;20179;-90
2021/05/04 06:02:03;;;;;;;10.97;5.10;;;10.10;87.60;;;;;;4936169;29;20186;-90
2021/05/04 06:04:29;;;;;;;10.33;5.77;;;10.20;86.90;;;;;;4940021;29;20363;-90
2021/05/04 06:06:54;;;;;;;9.27;5.87;;;10.30;86.70;;;;;;4955917;29;20210;-89
2021/05/04 06:09:20;;;;;;;12.73;7.20;;;10.30;86.30;;;;;;4957090;29;20186;-90
2021/05/04 06:11:45;;;;;;;12.70;6.47;;;10.40;86.30;;;;;;4957300;29;20214;-90
2021/05/04 06:14:11;;;;;;;10.00;5.90;;;10.40;86.00;;;;;;4946767;29;20207;-91
2021/05/04 06:16:37;;;;;;;9.37;5.77;;;10.50;86.20;;;;;;4937431;29;20176;-90
2021/05/04 06:19:03;;;;;;;13.10;6.10;;;10.60;85.50;;;;;;4936570;29;20758;-88
2021/05/04 06:21:28;;;;;;;11.83;6.33;;;10.70;85.60;;;;;;4936793;29;20246;-88
2021/05/04 06:23:56;;;;;;;10.37;5.97;;;10.70;85.40;;;;;;4936405;29;20264;-90
2021/05/04 06:26:22;;;;;;;9.20;5.60;;;10.80;85.70;;;;;;4953234;29;20175;-91
2021/05/04 06:28:49;;;;;;;15.33;5.57;;;10.80;85.30;;;;;;4953780;28;20524;-89
2021/05/04 06:31:19;;;;;;;9.20;5.37;;;10.90;85.10;;;;;;4957175;29;20434;-89
2021/05/04 06:33:46;;;;;;;11.53;5.50;;;11.00;84.70;;;;;;4940766;29;20466;-91
2021/05/04 06:36:12;;;;;;;9.83;5.57;;;11.10;84.70;;;;;;4940805;29;20483;-90
2021/05/04 06:38:38;;;;;;;11.10;6.00;;;11.10;84.10;;;;;;4941026;29;20442;-91
2021/05/04 06:41:04;;;;;;;8.53;5.53;;;11.20;84.20;;;;;;4940945;29;20427;-91
2021/05/04 06:43:30;;;;;;;11.90;5.63;;;11.20;83.90;;;;;;4941547;29;20183;-91
2021/05/04 06:45:56;;;;;;;8.90;4.90;;;11.30;84.00;;;;;;4941951;29;20187;-90
2021/05/04 06:48:21;;;;;;;9.63;5.70;;;11.40;83.60;;;;;;4946264;29;20443;-90
2021/05/04 06:50:47;;;;;;;9.07;5.90;;;11.40;83.70;;;;;;4958654;29;20179;-90
2021/05/04 06:53:12;;;;;;;9.57;5.63;;;11.40;83.50;;;;;;4941160;29;20190;-91
2021/05/04 06:55:38;;;;;;;9.27;5.47;;;11.40;83.50;;;;;;4941218;29;20674;-92
2021/05/04 06:58:03;;;;;;;9.80;5.63;;;11.40;83.50;;;;;;4941375;29;20205;-91
2021/05/04 07:00:29;;;;;;;18.07;5.90;;;11.40;84.00;;;;;;4958400;29;20180;-91
2021/05/04 07:02:54;;;;;;;7.93;5.30;;;11.40;83.90;;;;;;4940717;29;20720;-90
2021/05/04 07:05:21;;;;;;;8.57;5.40;;;11.40;84.60;;;;;;4940985;29;20226;-91
2021/05/04 07:07:47;;;;;;;10.07;5.43;;;11.40;84.40;;;;;;4941216;29;20235;-90
2021/05/04 07:10:12;;;;;;;7.03;4.90;;;11.40;84.90;;;;;;4959143;29;20423;-91
2021/05/04 07:12:38;;;;;;;7.20;4.97;;;11.40;84.50;;;;;;4942843;29;20646;-91
2021/05/04 07:15:05;;;;;;;10.40;5.33;;;11.40;84.90;;;;;;4941121;29;20222;-91
2021/05/04 07:17:31;;;;;;;9.70;5.70;;;11.40;85.40;;;;;;4939540;29;20446;-91
2021/05/04 07:19:57;;;;;;;9.30;5.43;;;11.40;85.70;;;;;;4940218;29;20437;-91
2021/05/04 07:22:26;;;;;;;13.63;5.97;;;11.40;85.30;;;;;;4940799;29;20265;-90
2021/05/04 07:24:52;;;;;;;8.90;4.63;;;11.50;84.80;;;;;;4940571;29;20433;-90
2021/05/04 07:27:17;;;;;;;7.33;5.20;;;11.50;84.70;;;;;;4939491;29;20470;-90
2021/05/04 07:29:43;;;;;;;7.80;4.60;;;11.50;85.80;;;;;;4940349;29;20490;-91
2021/05/04 07:32:09;;;;;;;7.07;5.00;;;11.50;84.70;;;;;;4957329;29;20274;-91
2021/05/04 07:34:36;;;;;;;8.10;4.97;;;11.60;84.70;;;;;;4940334;29;20592;-92
2021/05/04 07:37:01;;;;;;;10.47;5.13;;;11.50;85.20;;;;;;4940629;29;20434;-90
2021/05/04 07:39:27;;;;;;;9.47;5.30;;;11.50;85.70;;;;;;4939804;28;20426;-91
2021/05/04 07:41:53;;;;;;;6.50;4.50;;;11.50;85.10;;;;;;4941168;29;20496;-91
2021/05/04 07:44:19;;;;;;;6.90;4.27;;;11.50;85.40;;;;;;4941616;29;20242;-92
2021/05/04 07:46:44;;;;;;;8.13;4.90;;;11.50;86.00;;;;;;4942458;29;20187;-91
2021/05/04 07:49:17;;;;;;;8.33;4.97;;;11.50;86.60;;;;;;4945212;29;20427;-91
2021/05/04 07:51:43;;;;;;;9.30;4.93;;;11.50;85.80;;;;;;4939742;29;20183;-92
2021/05/04 07:54:08;;;;;;;13.00;4.73;;;11.60;86.10;;;;;;4940066;29;20473;-91
2021/05/04 07:56:34;;;;;;;6.53;4.67;;;11.60;85.80;;;;;;4940323;29;20647;-91
2021/05/04 07:58:59;;;;;;;8.90;5.00;;;11.60;86.10;;;;;;4940491;29;20183;-90
2021/05/04 08:01:25;;;;;;;6.23;4.60;;;11.60;85.70;;;;;;4939799;29;20179;-91
2021/05/04 08:03:50;;;;;;;8.80;5.17;;;11.70;85.20;;;;;;4940225;29;20645;-91
2021/05/04 08:06:18;;;;;;;9.50;5.20;;;11.70;85.70;;;;;;4939424;29;20722;-91
2021/05/04 08:08:44;;;;;;;9.33;5.90;;;11.80;85.40;;;;;;4939899;29;20286;-91
2021/05/04 08:11:10;;;;;;;5.67;4.43;;;11.80;85.50;;;;;;4940178;29;20477;-91
2021/05/04 08:13:36;;;;;;;9.00;5.60;;;11.80;85.40;;;;;;4938841;29;20707;-91
2021/05/04 08:16:06;;;;;;;6.57;4.60;;;11.80;85.20;;;;;;4939592;29;20266;-91
2021/05/04 08:18:32;;;;;;;11.83;5.03;;;11.90;85.00;;;;;;4940089;29;20454;-92
2021/05/04 08:20:58;;;;;;;6.90;4.73;;;12.00;85.90;;;;;;4940596;29;20404;-91
2021/05/04 08:23:25;;;;;;;9.00;4.60;;;12.00;85.30;;;;;;4940527;29;20510;-91
2021/05/04 08:25:52;;;;;;;8.10;4.53;;;12.10;84.60;;;;;;4940037;29;20201;-92
2021/05/04 08:28:18;;;;;;;8.63;4.23;;;12.10;84.80;;;;;;4968556;23;20508;-76
2021/05/04 08:30:43;;;;;;;8.63;4.50;;;12.20;84.90;;;;;;4955208;28;20438;-76
2021/05/04 08:33:09;;;;;;;11.80;5.30;;;12.20;84.30;;;;;;4955909;28;20243;-75
2021/05/04 08:35:35;;;;;;;6.20;4.33;;;12.30;84.10;;;;;;4955009;28;20266;-75
2021/05/04 08:38:00;;;;;;;5.57;3.63;;;12.30;83.70;;;;;;4956380;28;20668;-77
2021/05/04 08:40:26;;;;;;;12.10;4.20;;;12.40;82.30;;;;;;4955382;28;20202;-76
2021/05/04 08:42:53;;;;;;;9.53;3.80;;;12.50;82.20;;;;;;4955320;28;20181;-74
2021/05/04 08:45:18;;;;;;;7.97;3.40;;;12.60;81.70;;;;;;4955405;28;20432;-75
2021/05/04 08:47:46;;;;;;;5.57;3.87;;;12.60;81.50;;;;;;4955178;28;20801;-75
2021/05/04 08:50:17;;;;;;;4.60;3.20;;;12.70;81.70;;;;;;4972382;28;20630;-75
2021/05/04 08:52:43;;;;;;;7.47;4.13;;;12.70;80.70;;;;;;4955115;28;20430;-75
2021/05/04 08:55:11;;;;;;;7.07;3.40;;;12.70;80.80;;;;;;4954866;28;20461;-76
2021/05/04 08:57:37;;;;;;;4.77;3.50;;;12.70;81.50;;;;;;4954795;28;20179;-76
2021/05/04 09:00:08;;;;;;;4.90;3.13;;;12.70;81.60;;;;;;4955761;28;20426;-74
2021/05/04 09:02:54;;;;;;;6.73;3.90;;;12.80;81.00;;;;;;4954808;28;20446;-75
2021/05/04 09:05:20;;;;;;;3.50;2.87;;;12.80;81.90;;;;;;4955544;28;20418;-75
2021/05/04 09:07:46;;;;;;;4.70;2.90;;;12.70;81.90;;;;;;4955439;28;20512;-77
2021/05/04 09:10:24;;;;;;;4.00;2.97;;;12.70;82.20;;;;;;4954758;28;20178;-76
2021/05/04 09:13:06;;;;;;;4.93;3.20;;;12.70;81.70;;;;;;4956087;28;20929;-76
2021/05/04 09:18:38;;;;;;;7.47;2.87;;;12.70;82.20;;;;;;4973053;28;20493;-74
2021/05/04 09:21:06;;;;;;;8.27;3.37;;;12.60;82.00;;;;;;4972382;28;20426;-75
2021/05/04 09:23:31;;;;;;;5.23;2.90;;;12.60;82.80;;;;;;4954562;28;20502;-75
2021/05/04 09:25:57;;;;;;;5.70;2.77;;;12.60;82.60;;;;;;4972897;28;20414;-76
2021/05/04 09:28:23;;;;;;;5.17;3.00;;;12.60;82.80;;;;;;4954367;28;20222;-77
2021/05/04 09:30:53;;;;;;;3.87;2.67;;;12.60;82.60;;;;;;4954526;28;20202;-75
2021/05/04 09:33:19;;;;;;;5.67;2.90;;;12.60;82.70;;;;;;4972393;28;20185;-76
2021/05/04 09:35:45;;;;;;;2.87;2.40;;;12.60;82.90;;;;;;4954787;28;20434;-75
2021/05/04 09:38:16;;;;;;;3.63;2.40;;;12.60;83.00;;;;;;4954851;28;20421;-77
2021/05/04 09:40:43;;;;;;;5.37;3.50;;;12.70;83.00;;;;;;4955341;28;20442;-75
2021/05/04 09:43:11;;;;;;;3.80;3.03;;;12.70;83.10;;;;;;4971775;28;20437;-76
2021/05/04 09:45:38;;;;;;;8.80;2.97;;;12.80;83.20;;;;;;4954759;28;20468;-77
2021/05/04 09:48:30;;;;;;;3.73;2.93;;;12.80;83.10;;;;;;4954817;28;20476;-77
2021/05/04 09:51:19;;;;;;;5.07;3.30;;;12.90;83.10;;;;;;4954840;28;20438;-79
2021/05/04 09:53:59;;;;;;;6.07;3.40;;;13.00;83.30;;;;;;4972648;28;20453;-77
2021/05/04 09:56:31;;;;;;;21.53;3.87;;;13.10;82.90;;;;;;4971982;28;20477;-76
2021/05/04 09:58:57;;;;;;;3.93;2.80;;;13.30;83.40;;;;;;4971938;28;20414;-76
2021/05/04 10:01:22;;;;;;;3.77;2.50;;;13.40;82.50;;;;;;4954943;28;20532;-77
2021/05/04 10:03:50;;;;;;;2.93;2.40;;;13.50;81.50;;;;;;4956111;28;20182;-76
2021/05/04 10:06:17;;;;;;;6.53;2.97;;;13.60;81.10;;;;;;4958723;28;20225;-76
2021/05/04 10:08:44;;;;;;;4.53;2.53;;;13.80;81.80;;;;;;4958554;28;20456;-76
2021/05/04 10:11:15;;;;;;;4.63;2.90;;;14.10;81.00;;;;;;4958076;28;20994;-76
2021/05/04 10:13:42;;;;;;;3.73;2.77;;;14.30;80.30;;;;;;4958447;28;20453;-77
2021/05/04 10:16:09;;;;;;;5.00;2.40;;;14.20;80.00;;;;;;4958298;28;20508;-76
2021/05/04 10:18:36;;;;;;;4.00;2.70;;;14.10;80.10;;;;;;4958062;28;20509;-77
2021/05/04 10:21:04;;;;;;;6.27;3.10;;;14.20;80.10;;;;;;4975991;28;20846;-77
2021/05/04 10:23:31;;;;;;;5.00;2.83;;;14.40;80.70;;;;;;4957758;28;20433;-75
2021/05/04 10:26:01;;;;;;;2.93;2.20;;;14.50;79.00;;;;;;4958252;28;20421;-74
2021/05/04 10:28:35;;;;;;;5.13;3.10;;;14.40;79.30;;;;;;4975738;28;20496;-75
2021/05/04 10:31:06;;;;;;;7.60;2.73;;;14.40;79.20;;;;;;4957793;28;20931;-76
2021/05/04 10:33:34;;;;;;;7.60;2.43;;;14.40;80.00;;;;;;4957429;28;20978;-75
2021/05/04 10:36:01;;;;;;;5.27;2.80;;;14.40;79.40;;;;;;4975755;28;20464;-75
2021/05/04 10:38:47;;;;;;;4.83;2.80;;;14.20;80.10;;;;;;4957518;28;20426;-75
2021/05/04 10:41:13;;;;;;;4.20;2.90;;;14.10;79.40;;;;;;4957964;28;20468;-74
2021/05/04 10:43:40;;;;;;;4.03;2.83;;;14.10;79.60;;;;;;4957859;28;20425;-76
2021/05/04 10:46:09;;;;;;;2.90;2.47;;;14.10;79.40;;;;;;4974386;28;20191;-75
2021/05/04 10:48:42;;;;;;;4.37;2.60;;;14.10;79.70;;;;;;4958199;28;20512;-75
2021/05/04 10:51:15;;;;;;;7.07;3.17;;;14.10;79.30;;;;;;4974524;28;20469;-75
2021/05/04 10:54:07;;;;;;;3.10;2.70;;;14.20;79.20;;;;;;4957297;28;20457;-75
2021/05/04 10:56:37;;;;;;;3.63;2.60;;;14.10;79.40;;;;;;4954974;28;20645;-73
2021/05/04 10:59:05;;;;;;;3.90;2.43;;;14.10;79.80;;;;;;4974278;28;20787;-77
2021/05/04 11:01:30;;;;;;;2.97;2.43;;;14.10;79.70;;;;;;4957815;28;21016;-76
2021/05/04 11:04:00;;;;;;;6.03;2.47;;;14.10;80.30;;;;;;4957506;28;20473;-76
2021/05/04 11:06:26;;;;;;;2.97;2.30;;;14.20;80.30;;;;;;4974559;28;20178;-76
2021/05/04 11:08:51;;;;;;;3.73;2.40;;;14.40;79.90;;;;;;4957271;28;20418;-76
2021/05/04 11:11:29;;;;;;;5.20;2.43;;;14.50;79.90;;;;;;4956997;28;20226;-77
2021/05/04 11:13:57;;;;;;;4.60;2.13;;;14.60;79.60;;;;;;4974712;28;20276;-75
2021/05/04 11:16:45;;;;;;;2.50;1.97;;;14.70;79.50;;;;;;4957009;28;20459;-75
2021/05/04 11:19:13;;;;;;;2.53;2.33;;;14.70;79.70;;;;;;4973814;28;20545;-73
2021/05/04 11:21:47;;;;;;;3.70;2.40;;;14.70;80.20;;;;;;4956571;28;20488;-76
2021/05/04 11:24:15;;;;;;;3.40;2.23;;;14.80;79.20;;;;;;4957192;28;20414;-76
2021/05/04 11:26:53;;;;;;;3.60;2.00;;;14.80;79.50;;;;;;4956740;28;20448;-72
2021/05/04 11:29:23;;;;;;;4.43;1.60;;;14.70;79.20;;;;;;4956779;28;20469;-74
2021/05/04 11:31:52;;;;;;;5.57;2.27;;;14.60;79.50;;;;;;4956535;28;20457;-73
2021/05/04 11:34:41;;;;;;;12.30;2.20;;;14.40;80.00;;;;;;4955967;28;20465;-78
2021/05/04 11:37:33;;;;;;;4.10;2.27;;;14.40;80.60;;;;;;4956857;28;20453;-72
2021/05/04 11:39:59;;;;;;;2.53;2.00;;;14.40;79.90;;;;;;4956392;28;20410;-74
2021/05/04 11:42:36;;;;;;;2.40;1.80;;;14.40;80.20;;;;;;4956301;28;20461;-75
2021/05/04 11:45:07;;;;;;;8.53;2.60;;;14.40;80.20;;;;;;4957206;28;20445;-79
2021/05/04 11:47:33;;;;;;;5.30;2.53;;;14.40;80.40;;;;;;4956323;28;20414;-77
2021/05/04 11:50:16;;;;;;;4.00;2.10;;;14.40;80.10;;;;;;4956651;28;20469;-74
2021/05/04 11:52:45;;;;;;;2.50;2.30;;;14.40;80.50;;;;;;4956219;28;20972;-75
2021/05/04 11:55:22;;;;;;;2.53;2.10;;;14.40;80.80;;;;;;4956000;28;20480;-75
2021/05/04 11:57:54;;;;;;;2.63;2.10;;;14.40;81.10;;;;;;4957001;28;20422;-75
2021/05/04 12:00:22;;;;;;;8.30;2.60;;;14.40;81.10;;;;;;4955554;28;20441;-75
2021/05/04 12:02:48;;;;;;;5.33;2.73;;;14.40;81.40;;;;;;4956253;28;20415;-76
2021/05/04 12:05:23;;;;;;;4.53;2.47;;;14.40;81.10;;;;;;4956071;28;20426;-77
2021/05/04 12:07:49;;;;;;;4.63;2.50;;;14.50;81.10;;;;;;4955875;28;20552;-74
2021/05/04 12:10:15;;;;;;;2.37;2.20;;;14.60;80.20;;;;;;4973467;28;20505;-75
2021/05/04 12:12:50;;;;;;;4.33;2.90;;;14.60;80.60;;;;;;4956643;28;20434;-75
2021/05/04 12:15:18;;;;;;;2.97;2.53;;;14.70;80.90;;;;;;4955521;28;20249;-74
2021/05/04 12:17:55;;;;;;;6.90;2.73;;;14.70;80.60;;;;;;4956164;28;20925;-75
2021/05/04 12:20:22;;;;;;;4.50;2.30;;;14.80;80.60;;;;;;4955489;28;20452;-76
2021/05/04 12:22:59;;;;;;;2.23;2.00;;;14.80;80.00;;;;;;4955848;28;20420;-73
2021/05/04 12:25:43;;;;;;;2.20;2.03;;;15.00;80.10;;;;;;4956066;28;20467;-75
2021/05/04 12:28:54;;;;;;;2.60;2.13;;;15.20;79.00;;;;;;4971736;28;20453;-78
2021/05/04 12:31:22;;;;;;;3.93;2.47;;;15.40;78.10;;;;;;4955915;28;20468;-74
2021/05/04 12:33:50;;;;;;;12.37;2.37;;;15.40;77.30;;;;;;4955638;28;20548;-74
2021/05/04 12:36:38;;;;;;;2.73;1.80;;;15.30;77.50;;;;;;4955417;28;20418;-74
2021/05/04 12:39:11;;;;;;;5.47;2.67;;;15.30;78.10;;;;;;4966574;28;20427;-75
2021/05/04 12:41:46;;;;;;;3.23;2.30;;;15.30;77.90;;;;;;4955241;28;20964;-74
2021/05/04 12:44:23;;;;;;;2.83;1.90;;;15.20;78.70;;;;;;4955284;28;20475;-74
2021/05/04 12:46:56;;;;;;;3.20;2.33;;;15.20;77.60;;;;;;4955336;28;20472;-74
2021/05/04 12:49:39;;;;;;;3.30;2.33;;;15.10;77.90;;;;;;4955076;28;20445;-73
2021/05/04 12:52:13;;;;;;;2.20;1.70;;;15.10;77.50;;;;;;4972619;28;20441;-76
2021/05/04 12:54:40;;;;;;;4.40;1.80;;;15.00;77.10;;;;;;4955221;28;20454;-75
2021/05/04 12:57:19;;;;;;;2.87;1.90;;;15.00;77.50;;;;;;4972124;28;20414;-74
2021/05/04 12:59:45;;;;;;;3.40;1.60;;;14.90;77.40;;;;;;4955721;28;20836;-72
2021/05/04 13:02:26;;;;;;;3.57;1.80;;;14.90;77.40;;;;;;4972628;28;20471;-72
2021/05/04 13:05:00;;;;;;;2.87;2.00;;;14.90;77.60;;;;;;4955072;28;20674;-73
2021/05/04 13:07:39;;;;;;;12.77;2.00;;;14.90;77.60;;;;;;4955079;28;20472;-77
2021/05/04 13:10:21;;;;;;;6.50;1.70;;;15.00;77.40;;;;;;4954889;28;20424;-77
2021/05/04 13:29:39;;;;;;;7.00;2.47;;;14.90;78.80;;;;;;4981487;28;20455;-75